sensor_id;sensor_type;location;lat;lon;timestamp;P1;durP1;ratioP1;P2;durP2;ratioP2
10110;SDS011;5095;49.796;9.934;2023-04-06T00:01:06;9.37;;;5.57;;
10110;SDS011;5095;49.796;9.934;2023-04-06T00:03:41;11.20;;;6.00;;
10110;SDS011;5095;49.796;9.934;2023-04-06T00:06:07;8.93;;;5.80;;
10110;SDS011;5095;49.796;9.934;2023-04-06T00:08:33;8.00;;;6.03;;
10110;SDS011;5095;49.796;9.934;2023-04-06T00:10:59;10.07;;;6.27;;
10110;SDS011;5095;49.796;9.934;2023-04-06T00:13:25;9.77;;;5.97;;
10110;SDS011;5095;49.796;9.934;2023-04-06T00:15:51;12.00;;;6.83;;
10110;SDS011;5095;49.796;9.934;2023-04-06T00:18:17;9.80;;;6.13;;
10110;SDS011;5095;49.796;9.934;2023-04-06T00:20:44;10.93;;;6.67;;
10110;SDS011;5095;49.796;9.934;2023-04-06T00:23:10;9.40;;;6.43;;
10110;SDS011;5095;49.796;9.934;2023-04-06T00:25:36;12.20;;;6.73;;
10110;SDS011;5095;49.796;9.934;2023-04-06T00:28:02;8.87;;;6.33;;
10110;SDS011;5095;49.796;9.934;2023-04-06T00:30:28;10.03;;;5.87;;
10110;SDS011;5095;49.796;9.934;2023-04-06T00:32:54;11.73;;;6.80;;
10110;SDS011;5095;49.796;9.934;2023-04-06T00:35:20;11.30;;;6.43;;
10110;SDS011;5095;49.796;9.934;2023-04-06T00:37:46;9.17;;;6.30;;
10110;SDS011;5095;49.796;9.934;2023-04-06T00:40:13;15.67;;;6.57;;
10110;SDS011;5095;49.796;9.934;2023-04-06T00:42:40;9.43;;;6.50;;
10110;SDS011;5095;49.796;9.934;2023-04-06T00:45:06;10.13;;;6.67;;
10110;SDS011;5095;49.796;9.934;2023-04-06T00:47:33;10.27;;;6.27;;
10110;SDS011;5095;49.796;9.934;2023-04-06T00:49:59;9.50;;;6.63;;
10110;SDS011;5095;49.796;9.934;2023-04-06T00:52:25;8.90;;;6.07;;
10110;SDS011;5095;49.796;9.934;2023-04-06T00:54:51;9.17;;;5.50;;
10110;SDS011;5095;49.796;9.934;2023-04-06T00:57:17;9.60;;;6.33;;
10110;SDS011;5095;49.796;9.934;2023-04-06T00:59:43;9.80;;;5.90;;
10110;SDS011;5095;49.796;9.934;2023-04-06T01:02:10;12.67;;;5.97;;
10110;SDS011;5095;49.796;9.934;2023-04-06T01:04:36;10.83;;;5.90;;
10110;SDS011;5095;49.796;9.934;2023-04-06T01:07:02;9.80;;;6.27;;
10110;SDS011;5095;49.796;9.934;2023-04-06T01:09:28;7.70;;;5.57;;
10110;SDS011;5095;49.796;9.934;2023-04-06T01:11:55;8.00;;;6.00;;
10110;SDS011;5095;49.796;9.934;2023-04-06T01:14:21;15.03;;;5.93;;
10110;SDS011;5095;49.796;9.934;2023-04-06T01:16:48;9.80;;;5.63;;
10110;SDS011;5095;49.796;9.934;2023-04-06T01:19:14;10.00;;;6.10;;
10110;SDS011;5095;49.796;9.934;2023-04-06T01:21:40;10.43;;;6.07;;
10110;SDS011;5095;49.796;9.934;2023-04-06T01:24:07;13.07;;;7.20;;
10110;SDS011;5095;49.796;9.934;2023-04-06T01:26:33;13.90;;;6.97;;
10110;SDS011;5095;49.796;9.934;2023-04-06T01:29:00;12.80;;;7.70;;
10110;SDS011;5095;49.796;9.934;2023-04-06T01:31:26;12.00;;;7.27;;
10110;SDS011;5095;49.796;9.934;2023-04-06T01:33:52;11.53;;;7.83;;
10110;SDS011;5095;49.796;9.934;2023-04-06T01:36:18;12.77;;;7.73;;
10110;SDS011;5095;49.796;9.934;2023-04-06T01:38:45;13.53;;;7.53;;
10110;SDS011;5095;49.796;9.934;2023-04-06T01:41:11;11.60;;;7.77;;
10110;SDS011;5095;49.796;9.934;2023-04-06T01:43:37;12.93;;;8.23;;
10110;SDS011;5095;49.796;9.934;2023-04-06T01:46:03;11.07;;;7.40;;
10110;SDS011;5095;49.796;9.934;2023-04-06T01:48:29;13.80;;;7.70;;
10110;SDS011;5095;49.796;9.934;2023-04-06T01:50:55;13.80;;;8.33;;
10110;SDS011;5095;49.796;9.934;2023-04-06T01:53:21;12.97;;;8.03;;
10110;SDS011;5095;49.796;9.934;2023-04-06T01:55:47;13.67;;;8.17;;
10110;SDS011;5095;49.796;9.934;2023-04-06T01:58:13;11.20;;;7.20;;
10110;SDS011;5095;49.796;9.934;2023-04-06T02:00:39;12.23;;;7.63;;
10110;SDS011;5095;49.796;9.934;2023-04-06T02:03:05;12.30;;;7.70;;
10110;SDS011;5095;49.796;9.934;2023-04-06T02:05:32;11.77;;;7.80;;
10110;SDS011;5095;49.796;9.934;2023-04-06T02:08:03;12.17;;;7.77;;
10110;SDS011;5095;49.796;9.934;2023-04-06T02:10:29;11.80;;;7.60;;
10110;SDS011;5095;49.796;9.934;2023-04-06T02:12:55;15.10;;;8.17;;
10110;SDS011;5095;49.796;9.934;2023-04-06T02:15:21;14.83;;;7.90;;
10110;SDS011;5095;49.796;9.934;2023-04-06T02:17:47;11.23;;;6.87;;
10110;SDS011;5095;49.796;9.934;2023-04-06T02:20:14;11.67;;;7.07;;
10110;SDS011;5095;49.796;9.934;2023-04-06T02:22:40;10.80;;;6.93;;
10110;SDS011;5095;49.796;9.934;2023-04-06T02:25:06;12.03;;;7.63;;
10110;SDS011;5095;49.796;9.934;2023-04-06T02:27:32;9.03;;;6.50;;
10110;SDS011;5095;49.796;9.934;2023-04-06T02:29:58;10.43;;;6.87;;
10110;SDS011;5095;49.796;9.934;2023-04-06T02:32:24;12.23;;;7.20;;
10110;SDS011;5095;49.796;9.934;2023-04-06T02:34:51;10.17;;;6.80;;
10110;SDS011;5095;49.796;9.934;2023-04-06T02:37:17;9.27;;;5.80;;
10110;SDS011;5095;49.796;9.934;2023-04-06T02:39:43;8.93;;;5.77;;
10110;SDS011;5095;49.796;9.934;2023-04-06T02:42:09;8.33;;;5.67;;
10110;SDS011;5095;49.796;9.934;2023-04-06T02:44:35;10.23;;;5.77;;
10110;SDS011;5095;49.796;9.934;2023-04-06T02:47:01;8.77;;;5.90;;
10110;SDS011;5095;49.796;9.934;2023-04-06T02:49:27;10.77;;;6.43;;
10110;SDS011;5095;49.796;9.934;2023-04-06T02:51:53;11.40;;;6.40;;
10110;SDS011;5095;49.796;9.934;2023-04-06T02:54:19;8.93;;;5.93;;
10110;SDS011;5095;49.796;9.934;2023-04-06T02:56:45;10.17;;;6.00;;
10110;SDS011;5095;49.796;9.934;2023-04-06T02:59:11;9.63;;;6.30;;
10110;SDS011;5095;49.796;9.934;2023-04-06T03:01:37;12.57;;;6.47;;
10110;SDS011;5095;49.796;9.934;2023-04-06T03:04:03;9.67;;;5.90;;
10110;SDS011;5095;49.796;9.934;2023-04-06T03:06:29;13.00;;;5.93;;
10110;SDS011;5095;49.796;9.934;2023-04-06T03:08:56;15.53;;;5.83;;
10110;SDS011;5095;49.796;9.934;2023-04-06T03:11:22;9.83;;;6.03;;
10110;SDS011;5095;49.796;9.934;2023-04-06T03:13:48;11.50;;;6.03;;
10110;SDS011;5095;49.796;9.934;2023-04-06T03:16:14;8.73;;;6.37;;
10110;SDS011;5095;49.796;9.934;2023-04-06T03:18:40;11.17;;;6.47;;
10110;SDS011;5095;49.796;9.934;2023-04-06T03:21:06;8.90;;;6.03;;
10110;SDS011;5095;49.796;9.934;2023-04-06T03:23:32;10.07;;;6.40;;
10110;SDS011;5095;49.796;9.934;2023-04-06T03:25:58;7.70;;;5.57;;
10110;SDS011;5095;49.796;9.934;2023-04-06T03:28:24;10.97;;;6.50;;
10110;SDS011;5095;49.796;9.934;2023-04-06T03:30:50;9.13;;;6.33;;
10110;SDS011;5095;49.796;9.934;2023-04-06T03:33:16;9.33;;;6.07;;
10110;SDS011;5095;49.796;9.934;2023-04-06T03:35:42;8.33;;;6.17;;
10110;SDS011;5095;49.796;9.934;2023-04-06T03:38:08;12.43;;;6.60;;
10110;SDS011;5095;49.796;9.934;2023-04-06T03:40:34;12.70;;;6.67;;
10110;SDS011;5095;49.796;9.934;2023-04-06T03:43:00;9.97;;;6.47;;
10110;SDS011;5095;49.796;9.934;2023-04-06T03:45:26;11.70;;;6.70;;
10110;SDS011;5095;49.796;9.934;2023-04-06T03:47:52;10.53;;;6.63;;
10110;SDS011;5095;49.796;9.934;2023-04-06T03:50:18;10.57;;;6.77;;
10110;SDS011;5095;49.796;9.934;2023-04-06T03:52:44;12.47;;;6.83;;
10110;SDS011;5095;49.796;9.934;2023-04-06T03:55:10;15.03;;;7.37;;
10110;SDS011;5095;49.796;9.934;2023-04-06T03:57:36;10.03;;;7.07;;
10110;SDS011;5095;49.796;9.934;2023-04-06T04:00:02;14.07;;;7.07;;
10110;SDS011;5095;49.796;9.934;2023-04-06T04:02:29;10.73;;;7.03;;
10110;SDS011;5095;49.796;9.934;2023-04-06T04:04:55;12.27;;;7.00;;
10110;SDS011;5095;49.796;9.934;2023-04-06T04:07:21;12.63;;;7.20;;
10110;SDS011;5095;49.796;9.934;2023-04-06T04:09:47;10.97;;;7.00;;
10110;SDS011;5095;49.796;9.934;2023-04-06T04:12:13;10.20;;;7.23;;
10110;SDS011;5095;49.796;9.934;2023-04-06T04:14:40;15.40;;;7.40;;
10110;SDS011;5095;49.796;9.934;2023-04-06T04:17:06;10.10;;;6.83;;
10110;SDS011;5095;49.796;9.934;2023-04-06T04:19:32;11.77;;;7.03;;
10110;SDS011;5095;49.796;9.934;2023-04-06T04:21:58;13.17;;;7.13;;
10110;SDS011;5095;49.796;9.934;2023-04-06T04:24:24;11.37;;;7.50;;
10110;SDS011;5095;49.796;9.934;2023-04-06T04:26:50;9.57;;;6.60;;
10110;SDS011;5095;49.796;9.934;2023-04-06T04:29:16;11.90;;;6.63;;
10110;SDS011;5095;49.796;9.934;2023-04-06T04:31:44;12.03;;;6.83;;
10110;SDS011;5095;49.796;9.934;2023-04-06T04:34:10;10.50;;;6.47;;
10110;SDS011;5095;49.796;9.934;2023-04-06T04:36:36;10.43;;;6.80;;
10110;SDS011;5095;49.796;9.934;2023-04-06T04:39:03;17.93;;;7.33;;
10110;SDS011;5095;49.796;9.934;2023-04-06T04:41:29;13.63;;;7.60;;
10110;SDS011;5095;49.796;9.934;2023-04-06T04:43:55;14.20;;;7.07;;
10110;SDS011;5095;49.796;9.934;2023-04-06T04:46:21;12.87;;;7.13;;
10110;SDS011;5095;49.796;9.934;2023-04-06T04:48:47;14.87;;;7.33;;
10110;SDS011;5095;49.796;9.934;2023-04-06T04:51:13;11.53;;;7.20;;
10110;SDS011;5095;49.796;9.934;2023-04-06T04:53:39;17.43;;;7.30;;
10110;SDS011;5095;49.796;9.934;2023-04-06T04:56:05;16.20;;;7.17;;
10110;SDS011;5095;49.796;9.934;2023-04-06T04:58:31;11.70;;;6.00;;
10110;SDS011;5095;49.796;9.934;2023-04-06T05:00:57;13.30;;;6.70;;
10110;SDS011;5095;49.796;9.934;2023-04-06T05:03:24;10.07;;;6.47;;
10110;SDS011;5095;49.796;9.934;2023-04-06T05:05:50;15.13;;;6.60;;
10110;SDS011;5095;49.796;9.934;2023-04-06T05:08:16;11.70;;;6.90;;
10110;SDS011;5095;49.796;9.934;2023-04-06T05:10:42;13.90;;;6.97;;
10110;SDS011;5095;49.796;9.934;2023-04-06T05:13:10;12.60;;;6.63;;
10110;SDS011;5095;49.796;9.934;2023-04-06T05:15:36;13.47;;;6.27;;
10110;SDS011;5095;49.796;9.934;2023-04-06T05:18:06;11.30;;;6.50;;
10110;SDS011;5095;49.796;9.934;2023-04-06T05:20:32;13.00;;;6.90;;
10110;SDS011;5095;49.796;9.934;2023-04-06T05:22:58;11.10;;;6.90;;
10110;SDS011;5095;49.796;9.934;2023-04-06T05:25:24;12.77;;;6.93;;
10110;SDS011;5095;49.796;9.934;2023-04-06T05:27:50;12.03;;;6.90;;
10110;SDS011;5095;49.796;9.934;2023-04-06T05:30:16;10.20;;;6.73;;
10110;SDS011;5095;49.796;9.934;2023-04-06T05:32:42;17.13;;;7.73;;
10110;SDS011;5095;49.796;9.934;2023-04-06T05:35:09;17.50;;;6.57;;
10110;SDS011;5095;49.796;9.934;2023-04-06T05:37:35;10.37;;;6.87;;
10110;SDS011;5095;49.796;9.934;2023-04-06T05:40:02;14.60;;;7.70;;
10110;SDS011;5095;49.796;9.934;2023-04-06T05:42:28;9.47;;;6.60;;
10110;SDS011;5095;49.796;9.934;2023-04-06T05:45:01;11.87;;;6.93;;
10110;SDS011;5095;49.796;9.934;2023-04-06T05:47:27;14.07;;;7.50;;
10110;SDS011;5095;49.796;9.934;2023-04-06T05:49:54;14.53;;;8.00;;
10110;SDS011;5095;49.796;9.934;2023-04-06T05:52:20;11.47;;;7.40;;
10110;SDS011;5095;49.796;9.934;2023-04-06T05:54:46;12.80;;;7.20;;
10110;SDS011;5095;49.796;9.934;2023-04-06T05:57:12;10.50;;;6.93;;
10110;SDS011;5095;49.796;9.934;2023-04-06T05:59:38;12.03;;;7.60;;
10110;SDS011;5095;49.796;9.934;2023-04-06T06:02:04;13.93;;;7.30;;
10110;SDS011;5095;49.796;9.934;2023-04-06T06:04:30;11.43;;;7.40;;
10110;SDS011;5095;49.796;9.934;2023-04-06T06:06:56;14.30;;;7.80;;
10110;SDS011;5095;49.796;9.934;2023-04-06T06:09:22;13.10;;;7.47;;
10110;SDS011;5095;49.796;9.934;2023-04-06T06:11:48;13.17;;;7.67;;
10110;SDS011;5095;49.796;9.934;2023-04-06T06:14:15;10.73;;;7.93;;
10110;SDS011;5095;49.796;9.934;2023-04-06T06:16:41;23.13;;;8.60;;
10110;SDS011;5095;49.796;9.934;2023-04-06T06:19:07;16.47;;;8.13;;
10110;SDS011;5095;49.796;9.934;2023-04-06T06:21:33;17.33;;;8.03;;
10110;SDS011;5095;49.796;9.934;2023-04-06T06:23:59;10.83;;;7.33;;
10110;SDS011;5095;49.796;9.934;2023-04-06T06:26:25;14.80;;;8.20;;
10110;SDS011;5095;49.796;9.934;2023-04-06T06:28:51;14.00;;;8.63;;
10110;SDS011;5095;49.796;9.934;2023-04-06T06:31:17;16.43;;;7.53;;
10110;SDS011;5095;49.796;9.934;2023-04-06T06:33:47;12.27;;;7.40;;
10110;SDS011;5095;49.796;9.934;2023-04-06T06:36:15;13.60;;;7.97;;
10110;SDS011;5095;49.796;9.934;2023-04-06T06:38:42;16.30;;;7.93;;
10110;SDS011;5095;49.796;9.934;2023-04-06T06:41:08;15.17;;;8.23;;
10110;SDS011;5095;49.796;9.934;2023-04-06T06:43:34;10.93;;;7.77;;
10110;SDS011;5095;49.796;9.934;2023-04-06T06:46:00;13.83;;;7.93;;
10110;SDS011;5095;49.796;9.934;2023-04-06T06:48:26;13.23;;;8.23;;
10110;SDS011;5095;49.796;9.934;2023-04-06T06:50:52;14.47;;;8.83;;
10110;SDS011;5095;49.796;9.934;2023-04-06T06:53:18;14.53;;;8.40;;
10110;SDS011;5095;49.796;9.934;2023-04-06T06:55:45;13.00;;;7.77;;
10110;SDS011;5095;49.796;9.934;2023-04-06T06:58:11;14.57;;;7.60;;
10110;SDS011;5095;49.796;9.934;2023-04-06T07:00:37;14.00;;;7.60;;
10110;SDS011;5095;49.796;9.934;2023-04-06T07:03:03;11.53;;;7.70;;
10110;SDS011;5095;49.796;9.934;2023-04-06T07:05:29;13.77;;;7.17;;
10110;SDS011;5095;49.796;9.934;2023-04-06T07:07:55;12.00;;;7.83;;
10110;SDS011;5095;49.796;9.934;2023-04-06T07:10:21;13.43;;;7.73;;
10110;SDS011;5095;49.796;9.934;2023-04-06T07:12:47;14.77;;;8.10;;
10110;SDS011;5095;49.796;9.934;2023-04-06T07:15:13;13.50;;;7.77;;
10110;SDS011;5095;49.796;9.934;2023-04-06T07:17:39;11.40;;;7.50;;
10110;SDS011;5095;49.796;9.934;2023-04-06T07:20:10;15.13;;;8.20;;
10110;SDS011;5095;49.796;9.934;2023-04-06T07:22:37;12.13;;;7.93;;
10110;SDS011;5095;49.796;9.934;2023-04-06T07:25:03;11.93;;;8.03;;
10110;SDS011;5095;49.796;9.934;2023-04-06T07:27:29;12.27;;;7.57;;
10110;SDS011;5095;49.796;9.934;2023-04-06T07:29:55;16.27;;;8.47;;
10110;SDS011;5095;49.796;9.934;2023-04-06T07:32:22;11.50;;;8.13;;
10110;SDS011;5095;49.796;9.934;2023-04-06T07:34:48;13.03;;;7.83;;
10110;SDS011;5095;49.796;9.934;2023-04-06T07:37:14;11.13;;;7.37;;
10110;SDS011;5095;49.796;9.934;2023-04-06T07:39:40;12.57;;;8.33;;
10110;SDS011;5095;49.796;9.934;2023-04-06T07:42:06;17.07;;;8.07;;
10110;SDS011;5095;49.796;9.934;2023-04-06T07:44:32;12.53;;;7.90;;
10110;SDS011;5095;49.796;9.934;2023-04-06T07:46:58;10.70;;;7.17;;
10110;SDS011;5095;49.796;9.934;2023-04-06T07:49:24;11.60;;;7.90;;
10110;SDS011;5095;49.796;9.934;2023-04-06T07:51:50;11.50;;;6.83;;
10110;SDS011;5095;49.796;9.934;2023-04-06T07:54:16;13.27;;;6.67;;
10110;SDS011;5095;49.796;9.934;2023-04-06T07:56:42;14.03;;;7.10;;
10110;SDS011;5095;49.796;9.934;2023-04-06T07:59:08;13.27;;;7.03;;
10110;SDS011;5095;49.796;9.934;2023-04-06T08:01:36;11.77;;;7.13;;
10110;SDS011;5095;49.796;9.934;2023-04-06T08:04:02;13.47;;;6.80;;
10110;SDS011;5095;49.796;9.934;2023-04-06T08:06:28;10.40;;;7.13;;
10110;SDS011;5095;49.796;9.934;2023-04-06T08:08:55;11.03;;;6.93;;
10110;SDS011;5095;49.796;9.934;2023-04-06T08:11:21;10.43;;;6.87;;
10110;SDS011;5095;49.796;9.934;2023-04-06T08:13:47;11.70;;;7.20;;
10110;SDS011;5095;49.796;9.934;2023-04-06T08:16:13;10.30;;;7.47;;
10110;SDS011;5095;49.796;9.934;2023-04-06T08:18:40;13.60;;;7.27;;
10110;SDS011;5095;49.796;9.934;2023-04-06T08:21:06;9.80;;;6.87;;
10110;SDS011;5095;49.796;9.934;2023-04-06T08:23:32;8.23;;;6.60;;
10110;SDS011;5095;49.796;9.934;2023-04-06T08:25:58;9.33;;;6.67;;
10110;SDS011;5095;49.796;9.934;2023-04-06T08:28:24;11.90;;;7.00;;
10110;SDS011;5095;49.796;9.934;2023-04-06T08:30:50;9.07;;;6.40;;
10110;SDS011;5095;49.796;9.934;2023-04-06T08:33:16;11.70;;;6.83;;
10110;SDS011;5095;49.796;9.934;2023-04-06T08:35:42;8.67;;;6.97;;
10110;SDS011;5095;49.796;9.934;2023-04-06T08:38:08;10.20;;;6.50;;
10110;SDS011;5095;49.796;9.934;2023-04-06T08:40:38;10.23;;;6.70;;
10110;SDS011;5095;49.796;9.934;2023-04-06T08:43:06;13.53;;;6.87;;
10110;SDS011;5095;49.796;9.934;2023-04-06T08:45:33;9.70;;;6.83;;
10110;SDS011;5095;49.796;9.934;2023-04-06T08:48:00;11.73;;;7.07;;
10110;SDS011;5095;49.796;9.934;2023-04-06T08:50:31;11.50;;;7.23;;
10110;SDS011;5095;49.796;9.934;2023-04-06T08:52:58;11.53;;;7.80;;
10110;SDS011;5095;49.796;9.934;2023-04-06T08:55:25;15.27;;;7.60;;
10110;SDS011;5095;49.796;9.934;2023-04-06T08:57:51;9.20;;;7.03;;
10110;SDS011;5095;49.796;9.934;2023-04-06T09:00:20;10.07;;;7.47;;
10110;SDS011;5095;49.796;9.934;2023-04-06T09:02:46;11.30;;;6.40;;
10110;SDS011;5095;49.796;9.934;2023-04-06T09:05:13;10.90;;;7.20;;
10110;SDS011;5095;49.796;9.934;2023-04-06T09:07:40;11.40;;;6.90;;
10110;SDS011;5095;49.796;9.934;2023-04-06T09:10:07;12.57;;;7.53;;
10110;SDS011;5095;49.796;9.934;2023-04-06T09:12:34;11.80;;;7.03;;
10110;SDS011;5095;49.796;9.934;2023-04-06T09:15:00;9.87;;;6.97;;
10110;SDS011;5095;49.796;9.934;2023-04-06T09:17:33;11.67;;;7.13;;
10110;SDS011;5095;49.796;9.934;2023-04-06T09:20:00;10.57;;;8.37;;
10110;SDS011;5095;49.796;9.934;2023-04-06T09:22:34;11.33;;;7.47;;
10110;SDS011;5095;49.796;9.934;2023-04-06T09:25:01;12.67;;;8.60;;
10110;SDS011;5095;49.796;9.934;2023-04-06T09:27:30;9.63;;;6.63;;
10110;SDS011;5095;49.796;9.934;2023-04-06T09:30:10;13.57;;;7.23;;
10110;SDS011;5095;49.796;9.934;2023-04-06T09:32:48;10.27;;;6.83;;
10110;SDS011;5095;49.796;9.934;2023-04-06T09:35:14;10.83;;;7.20;;
10110;SDS011;5095;49.796;9.934;2023-04-06T09:37:41;11.10;;;7.17;;
10110;SDS011;5095;49.796;9.934;2023-04-06T09:40:08;10.43;;;7.10;;
10110;SDS011;5095;49.796;9.934;2023-04-06T09:42:35;10.07;;;7.03;;
10110;SDS011;5095;49.796;9.934;2023-04-06T09:45:04;10.30;;;7.17;;
10110;SDS011;5095;49.796;9.934;2023-04-06T09:47:30;9.50;;;6.80;;
10110;SDS011;5095;49.796;9.934;2023-04-06T09:49:58;8.93;;;6.97;;
10110;SDS011;5095;49.796;9.934;2023-04-06T09:55:02;11.53;;;7.57;;
10110;SDS011;5095;49.796;9.934;2023-04-06T09:57:29;12.87;;;7.73;;
10110;SDS011;5095;49.796;9.934;2023-04-06T10:00:04;10.03;;;7.27;;
10110;SDS011;5095;49.796;9.934;2023-04-06T10:05:07;10.27;;;7.03;;
10110;SDS011;5095;49.796;9.934;2023-04-06T10:07:35;8.93;;;5.93;;
10110;SDS011;5095;49.796;9.934;2023-04-06T10:10:02;10.97;;;5.03;;
10110;SDS011;5095;49.796;9.934;2023-04-06T10:12:28;8.93;;;5.93;;
10110;SDS011;5095;49.796;9.934;2023-04-06T10:14:54;9.20;;;6.33;;
10110;SDS011;5095;49.796;9.934;2023-04-06T10:17:22;8.43;;;6.47;;
10110;SDS011;5095;49.796;9.934;2023-04-06T10:20:01;9.30;;;6.93;;
10110;SDS011;5095;49.796;9.934;2023-04-06T10:22:52;9.37;;;6.70;;
10110;SDS011;5095;49.796;9.934;2023-04-06T10:25:25;8.67;;;6.57;;
10110;SDS011;5095;49.796;9.934;2023-04-06T10:27:58;10.80;;;7.13;;
10110;SDS011;5095;49.796;9.934;2023-04-06T10:30:24;9.57;;;6.70;;
10110;SDS011;5095;49.796;9.934;2023-04-06T10:32:51;9.57;;;6.10;;
10110;SDS011;5095;49.796;9.934;2023-04-06T10:35:17;11.20;;;6.77;;
10110;SDS011;5095;49.796;9.934;2023-04-06T10:37:46;12.30;;;7.13;;
10110;SDS011;5095;49.796;9.934;2023-04-06T10:40:19;10.50;;;7.30;;
10110;SDS011;5095;49.796;9.934;2023-04-06T10:42:45;11.80;;;7.17;;
10110;SDS011;5095;49.796;9.934;2023-04-06T10:45:22;11.53;;;7.20;;
10110;SDS011;5095;49.796;9.934;2023-04-06T10:47:48;10.43;;;6.50;;
10110;SDS011;5095;49.796;9.934;2023-04-06T10:50:14;9.47;;;6.73;;
10110;SDS011;5095;49.796;9.934;2023-04-06T10:52:43;10.23;;;7.03;;
10110;SDS011;5095;49.796;9.934;2023-04-06T10:55:09;11.83;;;7.53;;
10110;SDS011;5095;49.796;9.934;2023-04-06T10:57:35;10.00;;;6.83;;
10110;SDS011;5095;49.796;9.934;2023-04-06T11:00:03;13.67;;;7.40;;
10110;SDS011;5095;49.796;9.934;2023-04-06T11:02:29;13.77;;;7.10;;
10110;SDS011;5095;49.796;9.934;2023-04-06T11:04:57;12.10;;;6.97;;
10110;SDS011;5095;49.796;9.934;2023-04-06T11:07:24;10.70;;;7.77;;
10110;SDS011;5095;49.796;9.934;2023-04-06T11:09:51;8.77;;;6.43;;
10110;SDS011;5095;49.796;9.934;2023-04-06T11:12:27;10.33;;;6.83;;
10110;SDS011;5095;49.796;9.934;2023-04-06T11:14:57;14.03;;;7.47;;
10110;SDS011;5095;49.796;9.934;2023-04-06T11:17:29;10.17;;;6.50;;
10110;SDS011;5095;49.796;9.934;2023-04-06T11:19:56;13.83;;;7.30;;
10110;SDS011;5095;49.796;9.934;2023-04-06T11:22:22;10.47;;;6.87;;
10110;SDS011;5095;49.796;9.934;2023-04-06T11:24:48;12.47;;;7.30;;
10110;SDS011;5095;49.796;9.934;2023-04-06T11:27:15;10.97;;;6.93;;
10110;SDS011;5095;49.796;9.934;2023-04-06T11:29:41;9.13;;;6.97;;
10110;SDS011;5095;49.796;9.934;2023-04-06T11:32:08;9.83;;;6.93;;
10110;SDS011;5095;49.796;9.934;2023-04-06T11:34:38;10.53;;;6.83;;
10110;SDS011;5095;49.796;9.934;2023-04-06T11:37:08;11.03;;;6.83;;
10110;SDS011;5095;49.796;9.934;2023-04-06T11:39:47;10.90;;;7.57;;
10110;SDS011;5095;49.796;9.934;2023-04-06T11:42:21;11.90;;;7.60;;
10110;SDS011;5095;49.796;9.934;2023-04-06T11:44:49;13.33;;;7.77;;
10110;SDS011;5095;49.796;9.934;2023-04-06T11:47:15;9.70;;;6.90;;
10110;SDS011;5095;49.796;9.934;2023-04-06T11:49:42;11.43;;;7.37;;
10110;SDS011;5095;49.796;9.934;2023-04-06T11:54:41;10.70;;;7.73;;
10110;SDS011;5095;49.796;9.934;2023-04-06T11:57:08;11.33;;;7.50;;
10110;SDS011;5095;49.796;9.934;2023-04-06T11:59:34;10.67;;;6.30;;
10110;SDS011;5095;49.796;9.934;2023-04-06T12:02:03;9.00;;;6.60;;
10110;SDS011;5095;49.796;9.934;2023-04-06T12:04:29;10.30;;;6.40;;
10110;SDS011;5095;49.796;9.934;2023-04-06T12:06:56;11.70;;;6.60;;
10110;SDS011;5095;49.796;9.934;2023-04-06T12:09:22;8.73;;;6.10;;
10110;SDS011;5095;49.796;9.934;2023-04-06T12:11:48;9.97;;;7.10;;
10110;SDS011;5095;49.796;9.934;2023-04-06T12:14:14;11.43;;;6.63;;
10110;SDS011;5095;49.796;9.934;2023-04-06T12:16:41;9.77;;;5.70;;
10110;SDS011;5095;49.796;9.934;2023-04-06T12:19:07;13.00;;;7.97;;
10110;SDS011;5095;49.796;9.934;2023-04-06T12:21:36;12.13;;;8.47;;
10110;SDS011;5095;49.796;9.934;2023-04-06T12:24:02;13.70;;;10.20;;
10110;SDS011;5095;49.796;9.934;2023-04-06T12:26:29;12.07;;;7.00;;
10110;SDS011;5095;49.796;9.934;2023-04-06T12:28:55;10.23;;;6.40;;
10110;SDS011;5095;49.796;9.934;2023-04-06T12:31:21;18.73;;;12.77;;
10110;SDS011;5095;49.796;9.934;2023-04-06T12:33:48;10.80;;;6.70;;
10110;SDS011;5095;49.796;9.934;2023-04-06T12:36:15;8.77;;;6.40;;
10110;SDS011;5095;49.796;9.934;2023-04-06T12:38:43;10.73;;;6.90;;
10110;SDS011;5095;49.796;9.934;2023-04-06T12:41:10;8.83;;;6.37;;
10110;SDS011;5095;49.796;9.934;2023-04-06T12:43:37;12.37;;;7.23;;
10110;SDS011;5095;49.796;9.934;2023-04-06T12:46:03;8.23;;;6.00;;
10110;SDS011;5095;49.796;9.934;2023-04-06T12:48:29;8.97;;;6.13;;
10110;SDS011;5095;49.796;9.934;2023-04-06T12:50:58;12.63;;;6.57;;
10110;SDS011;5095;49.796;9.934;2023-04-06T12:53:24;9.23;;;6.20;;
10110;SDS011;5095;49.796;9.934;2023-04-06T12:55:51;12.63;;;6.40;;
10110;SDS011;5095;49.796;9.934;2023-04-06T12:58:18;9.10;;;6.20;;
10110;SDS011;5095;49.796;9.934;2023-04-06T13:00:44;11.53;;;6.40;;
10110;SDS011;5095;49.796;9.934;2023-04-06T13:03:10;11.43;;;6.33;;
10110;SDS011;5095;49.796;9.934;2023-04-06T13:05:43;7.27;;;5.07;;
10110;SDS011;5095;49.796;9.934;2023-04-06T13:08:09;9.57;;;5.43;;
10110;SDS011;5095;49.796;9.934;2023-04-06T13:10:35;10.03;;;6.17;;
10110;SDS011;5095;49.796;9.934;2023-04-06T13:13:02;9.03;;;5.63;;
10110;SDS011;5095;49.796;9.934;2023-04-06T13:15:28;8.47;;;6.30;;
10110;SDS011;5095;49.796;9.934;2023-04-06T13:17:54;12.43;;;6.33;;
10110;SDS011;5095;49.796;9.934;2023-04-06T13:20:20;8.93;;;5.70;;
10110;SDS011;5095;49.796;9.934;2023-04-06T13:22:47;8.53;;;5.47;;
10110;SDS011;5095;49.796;9.934;2023-04-06T13:25:13;9.00;;;5.07;;
10110;SDS011;5095;49.796;9.934;2023-04-06T13:27:39;9.17;;;6.27;;
10110;SDS011;5095;49.796;9.934;2023-04-06T13:30:05;9.53;;;5.63;;
10110;SDS011;5095;49.796;9.934;2023-04-06T13:32:32;9.30;;;5.33;;
10110;SDS011;5095;49.796;9.934;2023-04-06T13:34:58;8.13;;;5.00;;
10110;SDS011;5095;49.796;9.934;2023-04-06T13:37:25;8.53;;;5.67;;
10110;SDS011;5095;49.796;9.934;2023-04-06T13:39:51;10.40;;;6.33;;
10110;SDS011;5095;49.796;9.934;2023-04-06T13:42:17;8.27;;;5.73;;
10110;SDS011;5095;49.796;9.934;2023-04-06T13:44:43;9.03;;;5.83;;
10110;SDS011;5095;49.796;9.934;2023-04-06T13:47:11;12.07;;;7.40;;
10110;SDS011;5095;49.796;9.934;2023-04-06T13:49:37;9.47;;;6.00;;
10110;SDS011;5095;49.796;9.934;2023-04-06T13:52:03;9.80;;;6.00;;
10110;SDS011;5095;49.796;9.934;2023-04-06T13:54:30;10.17;;;6.20;;
10110;SDS011;5095;49.796;9.934;2023-04-06T13:56:56;8.23;;;5.80;;
10110;SDS011;5095;49.796;9.934;2023-04-06T13:59:22;10.70;;;7.47;;
10110;SDS011;5095;49.796;9.934;2023-04-06T14:01:48;8.40;;;5.60;;
10110;SDS011;5095;49.796;9.934;2023-04-06T14:04:14;11.10;;;6.17;;
10110;SDS011;5095;49.796;9.934;2023-04-06T14:06:40;10.97;;;5.53;;
10110;SDS011;5095;49.796;9.934;2023-04-06T14:09:06;8.93;;;5.30;;
10110;SDS011;5095;49.796;9.934;2023-04-06T14:11:32;9.23;;;5.60;;
10110;SDS011;5095;49.796;9.934;2023-04-06T14:13:58;8.37;;;5.13;;
10110;SDS011;5095;49.796;9.934;2023-04-06T14:16:25;8.40;;;5.77;;
10110;SDS011;5095;49.796;9.934;2023-04-06T14:18:51;9.87;;;5.20;;
10110;SDS011;5095;49.796;9.934;2023-04-06T14:21:17;8.50;;;4.90;;
10110;SDS011;5095;49.796;9.934;2023-04-06T14:23:43;8.73;;;5.30;;
10110;SDS011;5095;49.796;9.934;2023-04-06T14:26:11;8.23;;;5.53;;
10110;SDS011;5095;49.796;9.934;2023-04-06T14:28:37;8.27;;;5.60;;
10110;SDS011;5095;49.796;9.934;2023-04-06T14:31:09;10.20;;;5.90;;
10110;SDS011;5095;49.796;9.934;2023-04-06T14:33:36;8.00;;;5.47;;
10110;SDS011;5095;49.796;9.934;2023-04-06T14:36:03;7.23;;;5.00;;
10110;SDS011;5095;49.796;9.934;2023-04-06T14:38:29;7.43;;;5.07;;
10110;SDS011;5095;49.796;9.934;2023-04-06T14:40:56;7.90;;;5.10;;
10110;SDS011;5095;49.796;9.934;2023-04-06T14:43:22;9.73;;;5.40;;
10110;SDS011;5095;49.796;9.934;2023-04-06T14:45:48;9.83;;;5.30;;
10110;SDS011;5095;49.796;9.934;2023-04-06T14:48:14;6.33;;;4.93;;
10110;SDS011;5095;49.796;9.934;2023-04-06T14:50:50;7.47;;;5.20;;
10110;SDS011;5095;49.796;9.934;2023-04-06T14:53:18;8.10;;;4.60;;
10110;SDS011;5095;49.796;9.934;2023-04-06T14:55:44;17.00;;;10.77;;